createdAt,value
2022-09-17T00:01:06.210Z,100826.66
2022-09-17T00:06:45.603Z,100823.16
2022-09-17T00:09:28.018Z,100816.16
2022-09-17T00:12:12.368Z,100815.63
2022-09-17T00:14:53.057Z,100813.56
2022-09-17T00:17:50.911Z,100810.38
2022-09-17T00:20:30.035Z,100809.72
2022-09-17T00:23:09.107Z,100812.09
2022-09-17T00:26:00.490Z,100780.63
2022-09-17T00:28:48.397Z,100755.06
2022-09-17T00:31:25.936Z,100803.84
2022-09-17T00:34:19.813Z,100797.66
2022-09-17T00:37:15.919Z,100792.47
2022-09-17T00:40:14.820Z,100799.34
2022-09-17T00:42:55.953Z,100795.72
2022-09-17T00:45:51.748Z,100787.84
2022-09-17T00:48:29.100Z,100786.97
2022-09-17T00:51:31.712Z,100787.78
2022-09-17T00:54:47.821Z,100764.59
2022-09-17T00:57:29.887Z,100770.78
2022-09-17T01:00:18.673Z,100766.66
2022-09-17T01:03:08.658Z,100770.41
2022-09-17T01:06:09.380Z,100737.94
2022-09-17T01:09:00.742Z,100758.00
2022-09-17T01:11:54.568Z,100760.41
2022-09-17T01:14:57.892Z,100756.56
2022-09-17T01:17:54.765Z,100746.22
2022-09-17T01:21:07.093Z,100744.16
2022-09-17T01:24:40.344Z,100745.63
2022-09-17T01:27:52.004Z,100740.06
2022-09-17T01:34:30.724Z,100733.97
2022-09-17T01:40:13.491Z,100735.94
2022-09-17T01:43:12.227Z,100723.50
2022-09-17T01:45:55.474Z,100711.78
2022-09-17T01:48:47.120Z,100703.06
2022-09-17T01:51:50.206Z,100717.25
2022-09-17T01:54:39.180Z,100674.13
2022-09-17T01:57:45.216Z,100714.31
2022-09-17T02:00:35.170Z,100714.75
2022-09-17T02:03:21.253Z,100718.88
2022-09-17T02:06:05.535Z,100666.50
2022-09-17T02:09:21.486Z,100724.75
2022-09-17T02:12:13.599Z,100722.72
2022-09-17T02:14:59.241Z,100726.78
2022-09-17T02:17:47.012Z,100703.66
2022-09-17T02:20:28.478Z,100728.72
2022-09-17T02:23:07.787Z,100730.28
2022-09-17T02:25:57.371Z,100736.16
2022-09-17T02:28:40.082Z,100729.47
2022-09-17T02:31:20.080Z,100731.41
2022-09-17T02:34:05.878Z,100728.88
2022-09-17T02:36:55.456Z,100700.44
2022-09-17T02:39:47.773Z,100722.53
2022-09-17T02:42:44.881Z,100729.47
2022-09-17T02:46:01.913Z,100724.09
2022-09-17T02:49:21.649Z,100730.09
2022-09-17T02:52:15.555Z,100722.22
2022-09-17T02:55:16.175Z,100717.56
2022-09-17T02:58:08.363Z,100721.00
2022-09-17T03:00:58.568Z,100718.97
2022-09-17T03:06:51.362Z,100705.94
2022-09-17T03:09:37.548Z,100702.16
2022-09-17T03:12:19.974Z,100701.63
2022-09-17T03:14:59.292Z,100709.19
2022-09-17T03:17:41.628Z,100709.34
2022-09-17T03:20:20.415Z,100704.19
2022-09-17T03:22:57.472Z,100709.53
2022-09-17T03:25:38.367Z,100705.41
2022-09-17T03:28:21.264Z,100703.00
2022-09-17T03:31:07.225Z,100701.44
2022-09-17T03:34:10.449Z,100697.25
2022-09-17T03:37:08.193Z,100700.25
2022-09-17T03:40:00.778Z,100698.19
2022-09-17T03:43:00.482Z,100697.94
2022-09-17T03:45:40.338Z,100703.19
2022-09-17T03:48:23.078Z,100696.84
2022-09-17T03:51:32.906Z,100699.38
2022-09-17T03:54:26.321Z,100696.97
2022-09-17T03:57:04.187Z,100705.34
2022-09-17T03:59:46.129Z,100693.13
2022-09-17T04:02:38.653Z,100701.72
2022-09-17T04:05:41.899Z,100686.59
2022-09-17T04:08:32.941Z,100699.22
2022-09-17T04:11:42.753Z,100688.41
2022-09-17T04:14:30.160Z,100700.88
2022-09-17T04:17:11.562Z,100684.84
2022-09-17T04:19:53.337Z,100699.66
2022-09-17T04:22:43.010Z,100701.50
2022-09-17T04:25:22.218Z,100682.72
2022-09-17T04:28:19.639Z,100694.59
2022-09-17T04:31:09.675Z,100696.19
2022-09-17T04:33:58.884Z,100694.34
2022-09-17T04:36:39.372Z,100704.03
2022-09-17T04:39:29.479Z,100705.47
2022-09-17T04:42:16.976Z,100703.34
2022-09-17T04:45:03.975Z,100692.44
2022-09-17T04:50:52.657Z,100683.59
2022-09-17T04:53:38.589Z,100677.81
2022-09-17T04:56:27.486Z,100677.34
2022-09-17T04:59:06.615Z,100674.84
2022-09-17T05:02:02.124Z,100674.34
2022-09-17T05:04:44.415Z,100665.22
2022-09-17T05:07:28.458Z,100662.34
2022-09-17T05:10:09.116Z,100657.47
2022-09-17T05:12:54.103Z,100669.94
2022-09-17T05:15:43.757Z,100666.63
2022-09-17T05:18:39.826Z,100660.88
2022-09-17T05:21:22.362Z,100667.16
2022-09-17T05:24:19.077Z,100667.53
2022-09-17T05:27:30.729Z,100663.16
2022-09-17T05:30:17.270Z,100661.66
2022-09-17T05:33:08.205Z,100662.06
2022-09-17T05:36:00.614Z,100668.81
2022-09-17T05:38:45.447Z,100660.28
2022-09-17T05:41:36.423Z,100661.34
2022-09-17T05:44:24.174Z,100666.97
2022-09-17T05:47:07.164Z,100640.31
2022-09-17T05:50:04.628Z,100662.00
2022-09-17T05:52:49.973Z,100673.28
2022-09-17T05:55:33.737Z,100673.72
2022-09-17T05:58:23.346Z,100681.09
2022-09-17T06:01:07.544Z,100688.06
2022-09-17T06:04:11.054Z,100689.94
2022-09-17T06:07:27.124Z,100618.75
2022-09-17T06:10:27.879Z,100691.78
2022-09-17T06:13:13.624Z,100687.69
2022-09-17T06:16:03.069Z,100675.72
2022-09-17T06:18:39.278Z,100672.34
2022-09-17T06:21:33.603Z,100689.69
2022-09-17T06:24:19.908Z,100683.66
2022-09-17T06:27:25.170Z,100681.50
2022-09-17T06:30:01.603Z,100679.16
2022-09-17T06:32:55.937Z,100673.19
2022-09-17T06:35:58.936Z,100680.25
2022-09-17T06:38:54.710Z,100689.03
2022-09-17T06:44:48.413Z,100672.06
2022-09-17T06:47:31.667Z,100674.03
2022-09-17T06:50:19.643Z,100668.94
2022-09-17T06:53:12.843Z,100670.75
2022-09-17T06:56:06.973Z,100672.47
2022-09-17T06:58:55.535Z,100631.06
2022-09-17T07:01:42.728Z,100680.22
2022-09-17T07:04:25.666Z,100676.75
2022-09-17T07:07:05.560Z,100673.47
2022-09-17T07:09:44.243Z,100670.56
2022-09-17T07:12:30.538Z,100682.22
2022-09-17T07:15:20.669Z,100678.06
2022-09-17T07:18:28.344Z,100680.78
2022-09-17T07:21:12.351Z,100691.47
2022-09-17T07:24:00.842Z,100686.53
2022-09-17T07:26:51.353Z,100676.31
2022-09-17T07:29:32.076Z,100686.88
2022-09-17T07:32:25.442Z,100687.03
2022-09-17T07:35:11.689Z,100681.91
2022-09-17T07:38:01.755Z,100675.13
2022-09-17T07:40:44.412Z,100671.63
2022-09-17T07:43:38.711Z,100661.25
2022-09-17T07:46:19.445Z,100657.78
2022-09-17T07:49:03.074Z,100654.41
2022-09-17T07:51:59.738Z,100650.97
2022-09-17T07:54:43.743Z,100645.09
2022-09-17T07:57:35.139Z,100651.25
2022-09-17T08:00:14.455Z,100585.72
2022-09-17T08:03:05.367Z,100661.03
2022-09-17T08:05:44.949Z,100643.81
2022-09-17T08:08:32.408Z,100648.28
2022-09-17T08:11:13.619Z,100648.53
2022-09-17T08:14:18.200Z,100637.34
2022-09-17T08:17:39.437Z,100645.28
2022-09-17T08:20:22.265Z,100627.13
2022-09-17T08:23:08.589Z,100625.41
2022-09-17T08:25:47.341Z,100595.22
2022-09-17T08:28:29.693Z,100634.13
2022-09-17T08:31:16.176Z,100648.09
2022-09-17T08:33:51.309Z,100642.16
2022-09-17T08:36:29.393Z,100650.09
2022-09-17T08:39:24.131Z,100636.22
2022-09-17T08:42:26.190Z,100628.59
2022-09-17T08:45:05.254Z,100665.19
2022-09-17T08:47:50.608Z,100668.75
2022-09-17T08:50:43.786Z,100678.31
2022-09-17T08:53:51.329Z,100684.34
2022-09-17T08:56:39.741Z,100699.22
2022-09-17T08:59:36.265Z,100705.50
2022-09-17T09:02:27.205Z,100698.72
2022-09-17T09:05:18.193Z,100704.03
2022-09-17T09:08:30.187Z,100719.69
2022-09-17T09:11:09.012Z,100726.69
2022-09-17T09:13:59.031Z,100719.88
2022-09-17T09:16:50.350Z,100686.34
2022-09-17T09:19:44.950Z,100711.56
2022-09-17T09:22:39.656Z,100716.78
2022-09-17T09:25:31.350Z,100704.72
2022-09-17T09:28:51.021Z,100704.75
2022-09-17T09:32:15.290Z,100709.97
2022-09-17T09:35:08.512Z,100692.63
2022-09-17T09:37:58.900Z,100689.19
2022-09-17T09:40:57.653Z,100696.16
2022-09-17T09:44:16.878Z,100648.47
2022-09-17T09:47:11.624Z,100688.28
2022-09-17T09:51:02.256Z,100689.97
2022-09-17T09:53:53.817Z,100678.75
2022-09-17T10:00:47.670Z,100682.22
2022-09-17T10:03:37.043Z,100690.94
2022-09-17T10:06:35.999Z,100691.00
2022-09-17T10:09:23.652Z,100691.91
2022-09-17T10:15:32.540Z,100680.63
2022-09-17T10:18:28.311Z,100699.75
2022-09-17T10:21:04.619Z,100649.63
2022-09-17T10:28:03.978Z,100697.38
2022-09-17T10:31:09.012Z,100699.97
2022-09-17T10:34:19.217Z,100708.78
2022-09-17T10:36:59.552Z,100708.03
2022-09-17T10:44:02.061Z,100719.25
2022-09-17T10:46:50.119Z,100722.78
2022-09-17T10:50:00.417Z,100679.56
2022-09-17T10:52:52.724Z,100658.78
2022-09-17T10:59:03.296Z,100715.03
2022-09-17T11:01:53.409Z,100707.25
2022-09-17T11:05:05.734Z,100710.75
2022-09-17T11:07:51.071Z,100689.16
2022-09-17T11:21:54.422Z,100689.97
2022-09-17T11:26:09.786Z,100670.84
2022-09-17T11:29:46.691Z,100677.91
2022-09-17T11:33:06.135Z,100673.56
2022-09-17T11:35:54.896Z,100680.53
2022-09-17T11:38:57.880Z,100669.28
2022-09-17T11:41:45.098Z,100672.75
2022-09-17T11:44:58.278Z,100679.72
2022-09-17T11:48:19.878Z,100681.53
2022-09-17T11:51:05.361Z,100685.03
2022-09-17T11:53:53.860Z,100676.38
2022-09-17T11:56:47.084Z,100685.97
2022-09-17T11:59:41.703Z,100669.41
2022-09-17T12:02:35.228Z,100670.28
2022-09-17T12:05:35.712Z,100672.94
2022-09-17T12:08:31.858Z,100666.88
2022-09-17T12:11:17.252Z,100654.88
2022-09-17T12:14:16.916Z,100661.66
2022-09-17T12:17:04.410Z,100664.25
2022-09-17T12:22:54.767Z,100641.50
2022-09-17T12:25:49.131Z,100636.34
2022-09-17T12:28:48.456Z,100631.97
2022-09-17T12:31:41.598Z,100612.00
2022-09-17T12:34:52.206Z,100617.09
2022-09-17T12:37:53.216Z,100624.09
2022-09-17T12:40:52.594Z,100599.78
2022-09-17T12:44:02.224Z,100606.66
2022-09-17T12:47:19.806Z,100618.75
2022-09-17T12:50:23.067Z,100617.03
2022-09-17T12:53:25.210Z,100618.72
2022-09-17T12:56:47.821Z,100603.91
2022-09-17T12:59:48.156Z,100603.97
2022-09-17T13:02:44.734Z,100613.47
2022-09-17T13:06:05.988Z,100611.75
2022-09-17T13:09:13.000Z,100600.50
2022-09-17T13:12:40.744Z,100604.03
2022-09-17T13:15:54.222Z,100596.13
2022-09-17T13:22:08.152Z,100585.72
2022-09-17T13:24:55.232Z,100551.91
2022-09-17T13:27:40.788Z,100588.22
2022-09-17T13:30:45.729Z,100584.72
2022-09-17T13:34:19.791Z,100585.63
2022-09-17T13:36:59.183Z,100578.56
2022-09-17T13:39:53.341Z,100576.81
2022-09-17T13:42:56.411Z,100568.06
2022-09-17T13:45:58.922Z,100572.38
2022-09-17T13:48:45.460Z,100548.88
2022-09-17T13:51:59.435Z,100536.59
2022-09-17T13:54:51.901Z,100543.47
2022-09-17T13:57:37.423Z,100536.47
2022-09-17T14:00:36.385Z,100516.44
2022-09-17T14:07:03.566Z,100511.19
2022-09-17T14:10:03.953Z,100471.34
2022-09-17T14:13:25.148Z,100485.94
2022-09-17T14:16:37.524Z,100487.69
2022-09-17T14:19:33.050Z,100485.03
2022-09-17T14:22:23.622Z,100444.53
2022-09-17T14:25:24.056Z,100482.53
2022-09-17T14:28:19.275Z,100493.00
2022-09-17T14:31:02.498Z,100492.97
2022-09-17T14:33:49.539Z,100437.69
2022-09-17T14:36:33.893Z,100486.91
2022-09-17T14:39:34.376Z,100491.25
2022-09-17T14:42:34.279Z,100487.75
2022-09-17T14:45:14.316Z,100499.88
2022-09-17T14:47:54.308Z,100499.03
2022-09-17T14:50:46.147Z,100501.56
2022-09-17T14:53:29.174Z,100472.97
2022-09-17T14:56:42.880Z,100493.72
2022-09-17T14:59:36.405Z,100492.81
2022-09-17T15:02:49.248Z,100475.41
2022-09-17T15:05:35.126Z,100478.88
2022-09-17T15:08:20.544Z,100475.41
2022-09-17T15:11:07.218Z,100484.94
2022-09-17T15:13:57.950Z,100487.56
2022-09-17T15:16:44.818Z,100471.88
2022-09-17T15:19:28.624Z,100464.94
2022-09-17T15:22:04.158Z,100427.75
2022-09-17T15:24:56.276Z,100470.97
2022-09-17T15:31:01.066Z,100457.81
2022-09-17T15:33:47.385Z,100466.50
2022-09-17T15:39:45.485Z,100439.56
2022-09-17T15:45:43.711Z,100449.13
2022-09-17T15:48:56.389Z,100452.53
2022-09-17T15:51:39.653Z,100438.66
2022-09-17T15:54:45.371Z,100453.31
2022-09-17T15:57:31.172Z,100452.44
2022-09-17T16:00:41.742Z,100431.44
2022-09-17T16:04:06.683Z,100435.78
2022-09-17T16:07:08.219Z,100417.50
2022-09-17T16:09:55.680Z,100404.44
2022-09-17T16:12:35.969Z,100397.50
2022-09-17T16:15:15.174Z,100403.44
2022-09-17T16:18:11.935Z,100386.03
2022-09-17T16:21:14.935Z,100384.25
2022-09-17T16:24:11.270Z,100393.81
2022-09-17T16:26:54.310Z,100372.31
2022-09-17T16:29:50.550Z,100404.22
2022-09-17T16:32:32.782Z,100342.06
2022-09-17T16:35:15.129Z,100346.28
2022-09-17T16:38:07.733Z,100373.78
2022-09-17T16:41:06.310Z,100379.13
2022-09-17T16:43:47.070Z,100387.78
2022-09-17T16:46:40.246Z,100393.91
2022-09-17T16:49:36.172Z,100394.81
2022-09-17T16:52:20.744Z,100402.66
2022-09-17T16:55:00.179Z,100410.50
2022-09-17T16:57:38.228Z,100405.19
2022-09-17T17:00:19.151Z,100402.47
2022-09-17T17:03:21.203Z,100385.91
2022-09-17T17:06:07.860Z,100389.28
2022-09-17T17:09:11.636Z,100385.91
2022-09-17T17:11:59.391Z,100382.41
2022-09-17T17:14:42.972Z,100377.19
2022-09-17T17:17:35.761Z,100381.50
2022-09-17T17:20:22.710Z,100380.72
2022-09-17T17:23:20.310Z,100308.13
2022-09-17T17:26:08.238Z,100366.72
2022-09-17T17:28:51.015Z,100359.72
2022-09-17T17:34:51.624Z,100342.41
2022-09-17T17:37:45.043Z,100345.16
2022-09-17T17:40:22.682Z,100349.47
2022-09-17T17:43:04.586Z,100349.47
2022-09-17T17:45:48.119Z,100331.09
2022-09-17T17:48:41.034Z,100344.22
2022-09-17T17:51:34.770Z,100330.22
2022-09-17T17:54:15.632Z,100333.69
2022-09-17T17:57:07.530Z,100327.63
2022-09-17T17:59:53.670Z,100340.69
2022-09-17T18:05:52.782Z,100334.69
2022-09-17T18:08:41.205Z,100332.88
2022-09-17T18:11:26.275Z,100330.22
2022-09-17T18:14:09.399Z,100334.63
2022-09-17T18:16:52.052Z,100331.13
2022-09-17T18:19:25.888Z,100329.31
2022-09-17T18:22:23.052Z,100325.00
2022-09-17T18:25:15.591Z,100314.56
2022-09-17T18:27:58.790Z,100320.66
2022-09-17T18:30:42.791Z,100311.06
2022-09-17T18:33:26.740Z,100314.53
2022-09-17T18:36:16.356Z,100323.22
2022-09-17T18:39:10.928Z,100309.22
2022-09-17T18:41:55.181Z,100304.81
2022-09-17T18:47:27.752Z,100271.22
2022-09-17T18:50:04.643Z,100323.03
2022-09-17T18:52:42.865Z,100336.09
2022-09-17T18:55:30.268Z,100343.97
2022-09-17T18:58:08.024Z,100330.84
2022-09-17T19:01:06.316Z,100315.16
2022-09-17T19:04:04.692Z,100317.75
2022-09-17T19:06:51.304Z,100272.13
2022-09-17T19:09:31.757Z,100312.56
2022-09-17T19:12:15.663Z,100303.81
2022-09-17T19:15:02.980Z,100305.59
2022-09-17T19:17:41.334Z,100304.75
2022-09-17T19:20:23.454Z,100303.91
2022-09-17T19:23:14.099Z,100296.91
2022-09-17T19:28:47.097Z,100296.91
2022-09-17T19:31:37.005Z,100291.69
2022-09-17T19:34:29.435Z,100290.81
2022-09-17T19:37:06.346Z,100263.97
2022-09-17T19:39:44.403Z,100284.72
2022-09-17T19:42:22.518Z,100277.75
2022-09-17T19:45:16.525Z,100283.75
2022-09-17T19:48:04.362Z,100287.25
2022-09-17T19:50:58.887Z,100277.72
2022-09-17T19:53:36.639Z,100289.91
2022-09-17T19:56:27.989Z,100279.44
2022-09-17T19:59:13.624Z,100275.97
2022-09-17T20:05:07.481Z,100262.88
2022-09-17T20:07:44.870Z,100257.72
2022-09-17T20:10:24.459Z,100221.50
2022-09-17T20:13:00.089Z,100276.88
2022-09-17T20:15:47.671Z,100258.56
2022-09-17T20:18:41.657Z,100248.97
2022-09-17T20:21:24.061Z,100211.78
2022-09-17T20:23:59.049Z,100238.56
2022-09-17T20:26:53.959Z,100222.94
2022-09-17T20:29:32.065Z,100247.25
2022-09-17T20:32:22.112Z,100236.69
2022-09-17T20:35:32.092Z,100241.00
2022-09-17T20:41:11.524Z,100227.94
2022-09-17T20:43:55.119Z,100182.50
2022-09-17T20:46:50.333Z,100248.09
2022-09-17T20:49:34.638Z,100241.09
2022-09-17T20:52:24.128Z,100256.72
2022-09-17T20:55:10.274Z,100248.94
2022-09-17T20:58:05.744Z,100253.31
2022-09-17T21:00:51.215Z,100261.19
2022-09-17T21:06:50.142Z,100244.56
2022-09-17T21:09:28.779Z,100241.84
2022-09-17T21:12:15.168Z,100230.53
2022-09-17T21:14:59.164Z,100232.41
2022-09-17T21:18:10.473Z,100235.88
2022-09-17T21:21:24.765Z,100227.16
2022-09-17T21:24:25.822Z,100237.63
2022-09-17T21:27:27.922Z,100256.78
2022-09-17T21:30:18.683Z,100264.69
2022-09-17T21:33:04.832Z,100274.34
2022-09-17T21:35:52.510Z,100272.50
2022-09-17T21:41:44.844Z,100270.50
2022-09-17T21:44:31.766Z,100256.63
2022-09-17T21:47:17.979Z,100261.75
2022-09-17T21:50:06.613Z,100236.94
2022-09-17T21:52:48.533Z,100270.56
2022-09-17T21:55:32.866Z,100261.81
2022-09-17T21:58:23.308Z,100240.88
2022-09-17T22:01:10.934Z,100254.94
2022-09-17T22:03:48.778Z,100282.88
2022-09-17T22:06:27.097Z,100275.88
2022-09-17T22:09:15.777Z,100268.00
2022-09-17T22:12:15.639Z,100256.56
2022-09-17T22:14:55.869Z,100259.94
2022-09-17T22:17:51.865Z,100247.69
2022-09-17T22:20:27.951Z,100244.25
2022-09-17T22:23:06.857Z,100213.16
2022-09-17T22:25:51.306Z,100244.97
2022-09-17T22:28:37.629Z,100239.72
2022-09-17T22:31:40.202Z,100233.59
2022-09-17T22:34:19.382Z,100167.81
2022-09-17T22:36:56.539Z,100212.59
2022-09-17T22:39:56.201Z,100205.38
2022-09-17T22:42:46.299Z,100208.75
2022-09-17T22:45:40.328Z,100164.47
2022-09-17T22:48:36.370Z,100196.97
2022-09-17T22:51:28.519Z,100170.28
2022-09-17T22:54:09.184Z,100179.38
2022-09-17T22:57:03.961Z,100159.63
2022-09-17T22:59:54.498Z,100197.81
2022-09-17T23:02:33.627Z,100200.41
2022-09-17T23:05:14.507Z,100190.78
2022-09-17T23:08:15.337Z,100194.94
2022-09-17T23:11:07.329Z,100197.44
2022-09-17T23:13:58.102Z,100207.69
2022-09-17T23:16:44.537Z,100216.28
2022-09-17T23:19:29.442Z,100212.78
2022-09-17T23:22:17.173Z,100209.25
2022-09-17T23:25:12.166Z,100214.59
2022-09-17T23:27:51.806Z,100212.06
2022-09-17T23:30:42.524Z,100210.19
2022-09-17T23:33:21.659Z,100204.09
2022-09-17T23:36:11.982Z,100195.50
2022-09-17T23:39:36.729Z,100202.41
2022-09-17T23:42:15.887Z,100169.72
2022-09-17T23:44:57.022Z,100192.06
2022-09-17T23:47:33.159Z,100196.53
2022-09-17T23:50:12.564Z,100185.16
2022-09-17T23:52:49.426Z,100193.69
2022-09-17T23:55:42.239Z,100168.66
2022-09-17T23:58:31.518Z,100183.03
